Time;durP1;ratioP1;P1;durP2;ratioP2;P2;SDS_P1;SDS_P2;PMS_P1;PMS_P2;Temp;Humidity;BMP_temperature;BMP_pressure;BME280_temperature;BME280_humidity;BME280_pressure;Samples;Min_cycle;Max_cycle;Signal;HPM_P1;HPM_P2
2021/03/21 00:00:23;;;;;;;28.50;21.67;;;7.70;81.40;;;;;;4956184;28;20031;-74
2021/03/21 00:02:49;;;;;;;29.83;21.83;;;7.80;81.60;;;;;;4987228;28;20022;-74
2021/03/21 00:05:15;;;;;;;33.00;22.87;;;7.80;81.80;;;;;;4988087;28;20049;-73
2021/03/21 00:07:41;;;;;;;33.07;24.77;;;7.80;81.80;;;;;;4988419;28;20116;-74
2021/03/21 00:10:07;;;;;;;28.30;20.03;;;7.80;82.00;;;;;;4980910;28;20467;-74
2021/03/21 00:12:33;;;;;;;28.00;20.87;;;7.80;82.00;;;;;;4987678;28;20018;-79
2021/03/21 00:14:59;;;;;;;30.70;23.90;;;7.80;82.20;;;;;;4989252;28;20061;-74
2021/03/21 00:17:25;;;;;;;28.47;21.73;;;7.80;82.30;;;;;;4971784;28;20030;-74
2021/03/21 00:19:51;;;;;;;29.43;22.40;;;7.70;82.30;;;;;;4987317;28;20022;-74
2021/03/21 00:22:17;;;;;;;28.53;20.87;;;7.70;82.50;;;;;;4987507;28;20111;-73
2021/03/21 00:24:43;;;;;;;31.80;21.93;;;7.70;82.70;;;;;;4985963;28;20145;-77
2021/03/21 00:27:08;;;;;;;27.97;21.10;;;7.60;82.80;;;;;;4988982;28;20486;-75
2021/03/21 00:29:34;;;;;;;28.83;20.80;;;7.60;82.90;;;;;;4987107;28;20038;-79
2021/03/21 00:32:00;;;;;;;29.70;20.33;;;7.60;83.00;;;;;;4986428;28;20041;-74
2021/03/21 00:34:26;;;;;;;31.37;21.93;;;7.70;83.20;;;;;;4988677;28;20038;-74
2021/03/21 00:36:51;;;;;;;32.97;23.53;;;7.70;83.40;;;;;;4988022;28;20080;-74
2021/03/21 00:39:17;;;;;;;26.60;19.43;;;7.70;83.40;;;;;;4988421;28;20117;-74
2021/03/21 00:41:42;;;;;;;23.73;18.60;;;7.70;83.50;;;;;;4967359;28;20027;-71
2021/03/21 00:44:08;;;;;;;25.83;19.20;;;7.70;83.40;;;;;;4988711;28;20479;-72
2021/03/21 00:46:34;;;;;;;35.83;25.50;;;7.70;83.50;;;;;;4987162;28;20494;-74
2021/03/21 00:48:59;;;;;;;38.13;27.47;;;7.70;83.60;;;;;;4972797;28;20035;-75
2021/03/21 00:51:25;;;;;;;38.17;26.67;;;7.70;83.50;;;;;;4955800;28;20034;-74
2021/03/21 00:53:50;;;;;;;37.20;26.37;;;7.80;83.40;;;;;;4990045;28;20030;-74
2021/03/21 00:56:35;;;;;;;32.83;24.00;;;7.80;83.30;;;;;;4992037;28;20034;-74
2021/03/21 00:59:01;;;;;;;40.87;27.77;;;7.90;83.30;;;;;;4990024;28;20121;-74
2021/03/21 01:01:28;;;;;;;35.40;26.23;;;7.80;83.50;;;;;;4991708;28;20137;-73
2021/03/21 01:03:54;;;;;;;32.77;24.23;;;7.90;83.80;;;;;;4989964;28;20027;-73
2021/03/21 01:06:19;;;;;;;33.27;24.00;;;7.80;83.60;;;;;;4973740;28;20037;-72
2021/03/21 01:08:45;;;;;;;29.40;21.10;;;7.80;83.70;;;;;;4990026;28;20034;-73
2021/03/21 01:11:19;;;;;;;30.90;21.20;;;7.80;83.70;;;;;;4990688;28;20121;-73
2021/03/21 01:13:45;;;;;;;31.17;22.60;;;7.70;83.80;;;;;;4989057;28;20073;-73
2021/03/21 01:16:18;;;;;;;27.00;19.27;;;7.70;83.80;;;;;;4992104;28;20026;-73
2021/03/21 01:18:44;;;;;;;25.77;19.47;;;7.70;83.80;;;;;;4989917;28;20215;-74
2021/03/21 01:21:13;;;;;;;32.40;23.23;;;7.70;83.80;;;;;;4990412;28;20475;-73
2021/03/21 01:23:39;;;;;;;27.50;20.50;;;7.60;83.90;;;;;;4991713;28;20463;-74
2021/03/21 01:26:05;;;;;;;34.07;24.77;;;7.70;84.00;;;;;;5017538;28;20053;-74
2021/03/21 01:28:36;;;;;;;35.83;25.50;;;7.60;84.00;;;;;;5010938;28;20484;-74
2021/03/21 01:31:05;;;;;;;33.17;25.30;;;7.70;84.20;;;;;;5015177;28;20033;-73
2021/03/21 01:33:32;;;;;;;30.33;22.67;;;7.70;84.30;;;;;;5022175;28;20138;-74
2021/03/21 01:35:59;;;;;;;29.87;22.10;;;7.70;84.20;;;;;;4997481;28;20065;-72
2021/03/21 01:38:25;;;;;;;28.93;20.87;;;7.60;84.10;;;;;;5017367;28;20026;-73
2021/03/21 01:40:55;;;;;;;32.63;23.57;;;7.60;84.20;;;;;;4999505;28;20033;-76
2021/03/21 01:43:30;;;;;;;31.70;23.50;;;7.60;84.40;;;;;;5021265;28;20482;-75
2021/03/21 01:45:57;;;;;;;26.07;19.60;;;7.60;84.50;;;;;;5021976;28;20021;-75
2021/03/21 01:48:33;;;;;;;27.67;19.87;;;7.60;84.50;;;;;;5000670;28;20029;-75
2021/03/21 01:51:11;;;;;;;33.20;23.70;;;7.60;84.50;;;;;;5015331;28;20661;-76
2021/03/21 01:53:40;;;;;;;24.60;18.33;;;7.60;84.60;;;;;;5019544;28;20033;-75
2021/03/21 01:56:08;;;;;;;26.63;18.23;;;7.60;84.40;;;;;;5020966;28;20071;-75
2021/03/21 01:58:35;;;;;;;29.13;19.73;;;7.60;84.50;;;;;;5018686;28;20052;-74
2021/03/21 02:01:11;;;;;;;28.30;21.23;;;7.50;84.60;;;;;;4999401;28;20026;-75
2021/03/21 02:03:37;;;;;;;23.73;17.73;;;7.50;84.70;;;;;;5014528;28;20029;-74
2021/03/21 02:06:21;;;;;;;28.93;21.17;;;7.50;84.70;;;;;;4991005;28;20045;-75
2021/03/21 02:09:10;;;;;;;30.63;21.30;;;7.50;84.80;;;;;;4995401;28;20030;-78
2021/03/21 02:11:51;;;;;;;27.27;20.17;;;7.50;84.80;;;;;;5019646;28;20121;-75
2021/03/21 02:14:26;;;;;;;26.13;18.57;;;7.50;84.70;;;;;;5020286;28;20100;-74
2021/03/21 02:17:26;;;;;;;28.93;20.70;;;7.50;84.70;;;;;;5002702;28;20029;-78
2021/03/21 02:20:03;;;;;;;31.20;20.93;;;7.40;84.80;;;;;;5022973;28;20034;-79
2021/03/21 02:22:34;;;;;;;30.40;21.17;;;7.40;85.00;;;;;;5003077;28;20588;-75
2021/03/21 02:25:24;;;;;;;28.97;20.17;;;7.40;85.10;;;;;;5022391;28;20046;-75
2021/03/21 02:28:11;;;;;;;28.93;19.63;;;7.40;85.20;;;;;;5001718;28;20037;-79
2021/03/21 02:30:46;;;;;;;32.00;21.97;;;7.40;85.20;;;;;;5006223;28;20025;-75
2021/03/21 02:33:35;;;;;;;31.80;22.00;;;7.40;85.20;;;;;;5017521;28;20655;-75
2021/03/21 02:36:10;;;;;;;31.13;21.30;;;7.40;85.40;;;;;;5016563;28;20120;-74
2021/03/21 02:38:45;;;;;;;30.37;20.93;;;7.50;85.40;;;;;;5022856;28;20041;-75
2021/03/21 02:41:21;;;;;;;29.60;20.40;;;7.60;85.10;;;;;;5006496;28;20029;-75
2021/03/21 02:43:59;;;;;;;30.33;20.73;;;7.50;85.00;;;;;;5027368;28;20041;-75
2021/03/21 02:46:29;;;;;;;30.43;20.93;;;7.40;85.00;;;;;;4998233;28;20017;-75
2021/03/21 02:49:06;;;;;;;28.17;20.47;;;7.40;85.20;;;;;;5005815;28;20140;-78
2021/03/21 02:51:36;;;;;;;34.23;21.70;;;7.40;85.30;;;;;;5002732;28;20474;-75
2021/03/21 02:54:13;;;;;;;27.73;19.37;;;7.40;85.50;;;;;;5005245;28;20052;-75
2021/03/21 02:56:42;;;;;;;33.70;22.63;;;7.40;85.50;;;;;;5009557;28;20438;-76
2021/03/21 02:59:14;;;;;;;29.60;20.20;;;7.40;85.60;;;;;;4993977;28;20038;-76
2021/03/21 03:02:15;;;;;;;30.23;21.80;;;7.40;85.60;;;;;;5015445;28;20017;-75
2021/03/21 03:05:16;;;;;;;30.23;19.80;;;7.40;85.60;;;;;;4960801;28;20475;-75
2021/03/21 03:07:45;;;;;;;30.33;19.47;;;7.40;85.60;;;;;;5009756;28;20490;-75
2021/03/21 03:10:16;;;;;;;29.40;20.37;;;7.50;85.60;;;;;;4995377;28;20026;-75
2021/03/21 03:12:52;;;;;;;29.37;19.27;;;7.50;85.70;;;;;;5000767;28;20030;-74
2021/03/21 03:15:20;;;;;;;30.47;19.77;;;7.60;85.70;;;;;;5006809;28;20032;-76
2021/03/21 03:18:30;;;;;;;27.13;18.30;;;7.50;85.60;;;;;;5023604;28;20068;-75
2021/03/21 03:21:14;;;;;;;26.37;18.40;;;7.50;85.70;;;;;;4955623;28;20074;-75
2021/03/21 03:23:39;;;;;;;;;;;7.50;85.80;;;;;;4939424;29;20051;-74
2021/03/21 03:26:35;;;;;;;29.30;18.40;;;7.50;85.80;;;;;;4979450;28;20673;-75
2021/03/21 03:29:04;;;;;;;27.20;18.17;;;7.40;85.60;;;;;;4997674;28;20038;-78
2021/03/21 03:31:44;;;;;;;27.13;18.33;;;7.40;85.70;;;;;;5000764;28;20040;-76
2021/03/21 03:34:10;;;;;;;27.53;18.17;;;7.40;85.80;;;;;;5001264;28;20034;-75
2021/03/21 03:36:36;;;;;;;28.63;18.73;;;7.50;85.90;;;;;;5000839;28;20398;-75
2021/03/21 03:39:03;;;;;;;24.70;17.10;;;7.50;85.80;;;;;;4993992;28;20439;-78
2021/03/21 03:41:42;;;;;;;25.30;17.57;;;7.40;85.90;;;;;;4989013;28;20022;-74
2021/03/21 03:44:38;;;;;;;23.90;17.00;;;7.40;86.00;;;;;;5001136;28;20030;-74
2021/03/21 03:47:19;;;;;;;23.73;16.67;;;7.30;86.00;;;;;;4998189;28;20035;-77
2021/03/21 03:50:17;;;;;;;24.07;16.57;;;7.30;86.20;;;;;;5021694;28;20489;-74
2021/03/21 03:53:13;;;;;;;23.43;15.50;;;7.30;86.30;;;;;;4994517;28;20041;-74
2021/03/21 03:56:08;;;;;;;24.20;17.17;;;7.30;86.40;;;;;;4994519;28;20494;-75
2021/03/21 03:59:33;;;;;;;24.93;16.90;;;7.30;86.40;;;;;;4999555;28;20046;-74
2021/03/21 04:02:11;;;;;;;23.83;16.83;;;7.40;86.40;;;;;;4965187;28;20113;-74
2021/03/21 04:04:54;;;;;;;25.50;17.17;;;7.30;86.50;;;;;;4994560;28;20096;-74
2021/03/21 04:07:38;;;;;;;25.60;17.07;;;7.40;86.40;;;;;;4997178;28;20118;-74
2021/03/21 04:10:04;;;;;;;27.53;18.23;;;7.40;86.50;;;;;;4999019;28;20072;-74
2021/03/21 04:12:34;;;;;;;27.10;17.63;;;7.40;86.50;;;;;;4993206;28;20027;-74
2021/03/21 04:15:15;;;;;;;28.20;17.90;;;7.40;86.60;;;;;;4993596;28;20023;-74
2021/03/21 04:17:55;;;;;;;28.50;17.67;;;7.40;86.60;;;;;;5002224;28;20517;-75
2021/03/21 04:20:29;;;;;;;27.67;18.47;;;7.40;86.70;;;;;;4998114;28;20034;-77
2021/03/21 04:22:58;;;;;;;25.73;17.53;;;7.40;87.10;;;;;;4998044;28;20508;-75
2021/03/21 04:25:30;;;;;;;28.40;18.40;;;7.40;86.60;;;;;;5006052;28;20711;-77
2021/03/21 04:28:05;;;;;;;30.13;18.90;;;7.40;86.70;;;;;;5004019;28;20025;-76
2021/03/21 04:30:38;;;;;;;25.57;17.60;;;7.50;86.70;;;;;;5023036;28;20013;-76
2021/03/21 04:33:09;;;;;;;26.00;17.80;;;7.50;86.50;;;;;;5019271;28;20065;-77
2021/03/21 04:35:44;;;;;;;30.27;19.07;;;7.50;86.50;;;;;;5007211;28;20073;-76
2021/03/21 04:38:24;;;;;;;27.27;18.03;;;7.40;86.50;;;;;;5019528;28;20382;-76
2021/03/21 04:40:50;;;;;;;31.10;18.17;;;7.50;86.70;;;;;;5003352;28;20033;-76
2021/03/21 04:43:33;;;;;;;27.07;18.37;;;7.50;86.70;;;;;;4993033;28;20041;-76
2021/03/21 04:46:04;;;;;;;27.87;18.13;;;7.50;86.80;;;;;;5016951;28;20037;-77
2021/03/21 04:48:30;;;;;;;28.77;18.93;;;7.50;86.70;;;;;;5007167;28;20029;-77
2021/03/21 04:51:03;;;;;;;27.13;18.27;;;7.50;86.80;;;;;;4987691;28;20030;-77
2021/03/21 04:53:48;;;;;;;25.45;17.30;;;7.50;86.80;;;;;;5007404;28;20075;-77
2021/03/21 04:56:34;;;;;;;29.97;18.43;;;7.60;86.70;;;;;;5004902;28;20049;-78
2021/03/21 04:59:10;;;;;;;29.67;19.60;;;7.60;86.60;;;;;;5022670;28;20501;-77
2021/03/21 05:01:52;;;;;;;30.23;19.07;;;7.60;86.50;;;;;;5006229;28;20109;-77
2021/03/21 05:04:22;;;;;;;29.80;18.53;;;7.50;86.60;;;;;;5015890;28;20030;-77
2021/03/21 05:07:03;;;;;;;29.77;18.17;;;7.60;86.80;;;;;;5002718;28;20068;-74
2021/03/21 05:09:31;;;;;;;31.13;18.57;;;7.60;86.90;;;;;;5000537;28;20084;-74
2021/03/21 05:12:26;;;;;;;32.30;18.80;;;7.50;87.00;;;;;;5011273;28;20029;-74
2021/03/21 05:15:04;;;;;;;30.40;18.67;;;7.50;87.00;;;;;;5007464;28;20030;-74
2021/03/21 05:17:30;;;;;;;28.20;17.37;;;7.60;87.20;;;;;;5004207;28;20025;-74
2021/03/21 05:20:18;;;;;;;32.27;19.90;;;7.70;87.30;;;;;;4999908;28;20030;-75
2021/03/21 05:23:05;;;;;;;31.03;19.53;;;7.70;87.10;;;;;;4988140;28;20034;-74
2021/03/21 05:25:45;;;;;;;30.93;19.47;;;7.70;87.10;;;;;;5021835;28;20042;-75
2021/03/21 05:28:42;;;;;;;28.30;17.77;;;7.70;87.20;;;;;;5010290;28;20025;-74
2021/03/21 05:31:09;;;;;;;32.07;20.23;;;7.80;87.60;;;;;;5001510;28;20025;-77
2021/03/21 05:33:35;;;;;;;29.00;18.23;;;7.80;87.00;;;;;;4993075;28;20033;-76
2021/03/21 05:36:12;;;;;;;32.43;19.13;;;7.80;87.00;;;;;;5024464;28;20112;-75
2021/03/21 05:39:01;;;;;;;29.97;18.63;;;7.80;87.10;;;;;;5003110;28;20498;-76
2021/03/21 05:42:01;;;;;;;33.67;20.87;;;7.80;87.20;;;;;;5021144;28;20026;-76
2021/03/21 05:44:42;;;;;;;32.97;19.77;;;7.80;87.10;;;;;;5000007;28;20022;-76
2021/03/21 05:47:20;;;;;;;31.90;20.03;;;7.70;87.10;;;;;;5021369;28;20033;-75
2021/03/21 05:50:08;;;;;;;33.10;20.10;;;7.80;87.30;;;;;;5016138;28;20033;-77
2021/03/21 05:53:21;;;;;;;33.30;19.70;;;7.80;87.30;;;;;;5007343;28;20018;-75
2021/03/21 05:55:56;;;;;;;31.95;19.35;;;7.80;87.30;;;;;;5012542;28;20072;-77
2021/03/21 05:58:42;;;;;;;32.80;20.77;;;7.80;87.30;;;;;;5010135;28;20139;-76
2021/03/21 06:01:27;;;;;;;34.30;22.33;;;7.80;87.20;;;;;;5007993;28;20417;-76
2021/03/21 06:04:29;;;;;;;35.63;21.53;;;7.80;87.20;;;;;;5003929;28;20124;-76
2021/03/21 06:07:17;;;;;;;32.53;20.70;;;7.80;87.40;;;;;;5025033;28;20101;-76
2021/03/21 06:10:20;;;;;;;41.13;24.07;;;7.80;87.60;;;;;;5017556;28;20481;-76
2021/03/21 06:13:12;;;;;;;40.03;24.67;;;7.80;87.70;;;;;;5024403;28;20053;-77
2021/03/21 06:16:15;;;;;;;44.10;28.27;;;7.80;87.60;;;;;;5000211;28;20022;-76
2021/03/21 06:19:05;;;;;;;42.67;26.52;;;7.80;87.60;;;;;;5026555;28;20386;-78
2021/03/21 06:21:48;;;;;;;37.93;24.83;;;7.80;87.60;;;;;;5016390;28;20038;-78
2021/03/21 06:24:54;;;;;;;36.67;22.95;;;7.80;87.60;;;;;;4995894;28;20026;-76
2021/03/21 06:27:38;;;;;;;37.33;22.27;;;7.90;87.50;;;;;;5006765;28;20531;-77
2021/03/21 06:30:32;;;;;;;32.63;21.50;;;7.90;87.30;;;;;;5000394;28;20171;-75
2021/03/21 06:33:10;;;;;;;35.20;22.73;;;8.00;87.30;;;;;;4979174;28;20050;-76
2021/03/21 06:35:54;;;;;;;32.90;21.50;;;8.00;86.90;;;;;;5020613;28;20026;-77
2021/03/21 06:38:40;;;;;;;29.47;19.00;;;8.00;86.70;;;;;;5025427;28;20026;-75
2021/03/21 06:41:50;;;;;;;34.60;22.13;;;8.00;86.70;;;;;;5027574;28;20049;-77
2021/03/21 06:44:40;;;;;;;29.63;18.97;;;8.10;86.30;;;;;;4914135;29;20040;-75
2021/03/21 06:47:34;;;;;;;32.37;20.77;;;8.20;86.00;;;;;;5023950;28;20033;-75
2021/03/21 06:50:29;;;;;;;27.60;18.13;;;8.20;85.70;;;;;;5000932;28;20477;-75
2021/03/21 06:52:57;;;;;;;26.80;18.20;;;8.30;85.40;;;;;;5000858;28;20565;-75
2021/03/21 06:55:34;;;;;;;29.33;17.37;;;8.30;85.20;;;;;;5017512;28;20030;-76
2021/03/21 06:58:30;;;;;;;22.93;15.53;;;8.20;85.00;;;;;;4998846;28;20759;-77
2021/03/21 07:01:38;;;;;;;30.10;17.87;;;8.20;84.80;;;;;;5023760;28;20017;-76
2021/03/21 07:04:12;;;;;;;23.30;15.87;;;8.20;84.60;;;;;;5004944;28;20127;-76
2021/03/21 07:07:00;;;;;;;22.20;13.97;;;8.20;84.70;;;;;;5015832;28;20036;-80
2021/03/21 07:10:13;;;;;;;25.77;14.60;;;8.10;84.50;;;;;;5011314;28;20104;-78
2021/03/21 07:12:50;;;;;;;18.63;12.07;;;8.20;84.10;;;;;;4960165;28;20376;-77
2021/03/21 07:15:37;;;;;;;17.77;11.07;;;8.20;84.10;;;;;;5015942;28;20533;-77
2021/03/21 07:18:18;;;;;;;18.63;11.30;;;8.30;84.10;;;;;;5000860;28;20036;-76
2021/03/21 07:20:57;;;;;;;19.07;11.00;;;8.40;83.70;;;;;;5023624;28;20486;-78
2021/03/21 07:23:49;;;;;;;16.03;10.13;;;8.40;83.40;;;;;;5005106;28;20040;-77
2021/03/21 07:26:38;;;;;;;17.63;9.03;;;8.40;83.40;;;;;;5023285;28;20041;-75
2021/03/21 07:29:09;;;;;;;17.13;8.50;;;8.40;82.90;;;;;;5008157;28;20048;-78
2021/03/21 07:31:40;;;;;;;17.20;8.23;;;8.40;82.70;;;;;;5022141;28;20025;-76
2021/03/21 07:34:17;;;;;;;14.93;7.93;;;8.50;82.70;;;;;;5008067;28;20036;-75
2021/03/21 07:37:17;;;;;;;11.83;6.23;;;8.60;82.10;;;;;;5002439;28;20036;-81
2021/03/21 07:40:21;;;;;;;13.27;6.00;;;8.50;81.40;;;;;;5026932;28;20049;-77
2021/03/21 07:42:59;;;;;;;11.77;6.07;;;8.50;81.40;;;;;;4976210;28;20487;-74
2021/03/21 07:45:26;;;;;;;11.60;6.77;;;8.70;81.60;;;;;;4956741;28;20027;-78
2021/03/21 07:48:26;;;;;;;12.33;6.17;;;8.80;81.40;;;;;;4988012;28;20117;-76
2021/03/21 07:50:54;;;;;;;12.83;5.60;;;9.00;81.00;;;;;;4995302;28;20030;-76
2021/03/21 07:53:42;;;;;;;11.33;5.40;;;9.00;80.20;;;;;;5000253;28;20029;-77
2021/03/21 07:56:34;;;;;;;12.07;5.67;;;8.90;79.80;;;;;;5006195;28;20469;-76
2021/03/21 07:59:04;;;;;;;13.70;7.07;;;8.80;79.60;;;;;;5005402;28;20034;-76
2021/03/21 08:01:30;;;;;;;10.50;5.70;;;8.80;79.90;;;;;;5008594;28;20585;-76
2021/03/21 08:04:28;;;;;;;9.60;5.17;;;8.80;80.00;;;;;;5010954;28;20108;-75
2021/03/21 08:06:57;;;;;;;12.17;6.00;;;8.90;80.80;;;;;;5018066;28;20026;-75
2021/03/21 08:09:30;;;;;;;10.60;5.63;;;9.10;80.60;;;;;;5020815;28;20034;-76
2021/03/21 08:12:17;;;;;;;8.95;4.63;;;9.10;80.20;;;;;;5026381;28;20124;-76
2021/03/21 08:14:54;;;;;;;11.87;4.03;;;9.00;79.30;;;;;;5007674;28;20122;-75
2021/03/21 08:17:35;;;;;;;10.50;4.97;;;9.00;78.70;;;;;;5002936;28;20072;-78
2021/03/21 08:20:22;;;;;;;11.37;4.37;;;9.00;79.50;;;;;;5021668;28;20065;-77
2021/03/21 08:22:49;;;;;;;9.20;4.60;;;9.00;79.60;;;;;;5013463;28;20033;-80
2021/03/21 08:25:28;;;;;;;10.60;4.57;;;9.00;79.60;;;;;;4990593;28;20066;-76
2021/03/21 08:27:55;;;;;;;12.90;4.20;;;9.00;79.20;;;;;;5030067;28;20049;-77
2021/03/21 08:30:24;;;;;;;10.57;4.30;;;9.00;78.90;;;;;;5027344;28;20034;-76
2021/03/21 08:33:10;;;;;;;8.27;3.53;;;9.00;78.30;;;;;;5010396;28;20548;-82
2021/03/21 08:35:36;;;;;;;8.23;2.37;;;8.90;77.40;;;;;;5025614;28;20022;-76
2021/03/21 08:38:16;;;;;;;9.47;2.87;;;8.90;77.10;;;;;;5025916;28;20037;-77
2021/03/21 08:40:42;;;;;;;8.97;2.70;;;8.90;77.00;;;;;;5025300;28;20022;-77
2021/03/21 08:43:27;;;;;;;8.30;3.50;;;9.00;77.20;;;;;;5017024;28;20038;-76
2021/03/21 08:45:56;;;;;;;10.17;2.13;;;9.00;76.80;;;;;;5009713;28;20551;-80
2021/03/21 08:48:29;;;;;;;7.90;2.20;;;9.10;76.30;;;;;;5005920;28;20040;-77
2021/03/21 08:50:58;;;;;;;9.90;2.13;;;9.30;76.30;;;;;;5004664;28;20049;-78
2021/03/21 08:53:23;;;;;;;12.30;3.60;;;9.50;74.80;;;;;;5025892;28;20034;-77
2021/03/21 08:56:29;;;;;;;11.23;4.30;;;9.60;74.90;;;;;;5007400;28;20039;-75
2021/03/21 08:59:13;;;;;;;12.50;4.23;;;9.70;75.10;;;;;;4992074;28;20433;-82
2021/03/21 09:01:39;;;;;;;14.97;2.80;;;9.90;74.70;;;;;;5021754;28;20057;-76
2021/03/21 09:04:24;;;;;;;10.77;2.13;;;9.90;72.90;;;;;;5025147;28;20512;-76
2021/03/21 09:06:49;;;;;;;10.80;1.90;;;9.80;70.90;;;;;;5003404;28;20105;-76
2021/03/21 09:09:27;;;;;;;9.17;2.57;;;9.60;70.40;;;;;;5011058;28;20349;-76
2021/03/21 09:11:59;;;;;;;12.30;4.37;;;9.50;71.40;;;;;;5021083;28;20500;-75
2021/03/21 09:14:34;;;;;;;13.48;4.75;;;9.50;71.80;;;;;;4984376;28;20860;-78
2021/03/21 09:17:04;;;;;;;14.43;2.80;;;9.60;71.90;;;;;;4999995;28;20033;-77
2021/03/21 09:19:36;;;;;;;13.60;3.67;;;9.70;71.60;;;;;;5028534;28;20042;-77
2021/03/21 09:22:10;;;;;;;12.53;4.23;;;9.80;70.60;;;;;;5006895;28;20449;-75
2021/03/21 09:24:39;;;;;;;14.07;3.43;;;9.70;70.20;;;;;;5024971;28;20026;-77
2021/03/21 09:27:18;;;;;;;13.83;5.40;;;9.80;70.30;;;;;;4989783;28;20034;-77
2021/03/21 09:29:46;;;;;;;13.47;5.10;;;9.90;70.80;;;;;;5002083;28;20069;-79
2021/03/21 09:32:17;;;;;;;15.40;4.17;;;9.90;70.10;;;;;;5003879;28;20126;-78
2021/03/21 09:34:57;;;;;;;22.67;8.43;;;10.00;69.70;;;;;;5020294;28;20033;-76
2021/03/21 09:37:26;;;;;;;15.17;4.40;;;10.20;69.60;;;;;;5018229;28;20025;-80
2021/03/21 09:40:16;;;;;;;12.47;4.37;;;10.20;68.20;;;;;;5020280;28;20524;-79
2021/03/21 09:42:41;;;;;;;17.37;5.53;;;10.20;67.70;;;;;;5020762;28;20107;-77
2021/03/21 09:45:07;;;;;;;20.40;5.33;;;10.20;67.70;;;;;;5002728;28;20038;-78
2021/03/21 09:47:55;;;;;;;18.47;4.07;;;10.30;68.30;;;;;;5019507;28;20025;-78
2021/03/21 09:50:37;;;;;;;17.00;6.50;;;10.50;68.30;;;;;;4999980;28;20358;-78
2021/03/21 09:53:21;;;;;;;15.03;6.13;;;10.60;68.20;;;;;;5000469;28;20038;-80
2021/03/21 09:55:52;;;;;;;12.33;4.83;;;10.70;68.00;;;;;;4999963;28;20034;-78
2021/03/21 09:58:17;;;;;;;16.70;3.73;;;10.90;67.50;;;;;;5006130;28;20113;-77
2021/03/21 10:00:50;;;;;;;23.93;6.97;;;10.90;67.80;;;;;;5007967;28;20128;-78
2021/03/21 10:03:35;;;;;;;17.57;6.57;;;10.80;67.40;;;;;;5022836;28;20046;-82
2021/03/21 10:06:09;;;;;;;24.17;7.60;;;10.70;67.60;;;;;;5006579;28;20045;-77
2021/03/21 10:08:49;;;;;;;19.00;7.17;;;10.70;67.30;;;;;;5009110;28;20036;-78
2021/03/21 10:11:52;;;;;;;15.53;4.33;;;10.80;67.50;;;;;;5021213;28;20022;-77
2021/03/21 10:14:28;;;;;;;18.88;5.50;;;10.80;66.20;;;;;;5014822;28;20553;-78
2021/03/21 10:16:59;;;;;;;18.40;4.60;;;10.70;66.20;;;;;;5024037;28;20057;-78
2021/03/21 10:19:46;;;;;;;17.67;4.80;;;10.60;66.30;;;;;;5019168;28;20842;-75
2021/03/21 10:22:21;;;;;;;21.00;7.37;;;10.60;65.50;;;;;;5004419;28;20036;-77
2021/03/21 10:24:50;;;;;;;19.57;4.00;;;10.60;65.50;;;;;;5024229;28;20073;-76
2021/03/21 10:27:19;;;;;;;23.63;7.37;;;10.60;64.60;;;;;;5002431;28;20072;-79
2021/03/21 10:29:49;;;;;;;24.53;4.30;;;10.60;64.90;;;;;;5023465;28;20786;-79
2021/03/21 10:32:26;;;;;;;20.03;6.70;;;10.60;64.00;;;;;;5005547;28;20391;-77
2021/03/21 10:34:54;;;;;;;22.80;5.50;;;10.50;64.50;;;;;;5018307;28;20057;-76
2021/03/21 10:37:41;;;;;;;31.40;8.43;;;10.60;64.20;;;;;;5017701;28;20112;-79
2021/03/21 10:40:12;;;;;;;31.00;8.90;;;10.70;63.40;;;;;;5019108;28;20124;-76
2021/03/21 10:43:01;;;;;;;45.37;13.00;;;10.70;63.50;;;;;;5001537;28;20033;-76
2021/03/21 10:45:33;;;;;;;34.47;9.07;;;10.80;63.80;;;;;;5019245;28;20053;-80
2021/03/21 10:48:09;;;;;;;47.83;11.73;;;11.00;63.60;;;;;;5002596;28;20445;-76
2021/03/21 10:50:55;;;;;;;32.10;5.90;;;11.20;63.30;;;;;;5009146;28;20030;-76
2021/03/21 10:53:42;;;;;;;24.50;6.87;;;11.30;61.30;;;;;;5028914;28;20361;-80
2021/03/21 10:56:26;;;;;;;36.67;10.60;;;11.40;62.00;;;;;;5006408;28;20100;-77
2021/03/21 10:58:52;;;;;;;33.93;9.20;;;11.50;62.30;;;;;;5026960;28;20037;-78
2021/03/21 11:04:24;;;;;;;25.07;5.20;;;11.50;61.00;;;;;;5027501;28;20033;-75
2021/03/21 11:06:55;;;;;;;26.80;6.53;;;11.50;61.10;;;;;;5009469;28;20108;-75
2021/03/21 11:09:31;;;;;;;25.37;5.77;;;11.40;61.40;;;;;;5028270;28;20496;-75
2021/03/21 11:11:59;;;;;;;21.97;7.17;;;11.40;61.60;;;;;;5024562;28;20114;-74
2021/03/21 11:14:25;;;;;;;30.20;9.10;;;11.50;62.00;;;;;;5010188;28;20025;-74
2021/03/21 11:17:19;;;;;;;24.37;6.47;;;11.40;61.40;;;;;;5022786;28;20040;-77
2021/03/21 11:19:50;;;;;;;25.47;8.90;;;11.40;61.30;;;;;;5007686;28;20047;-76
2021/03/21 11:22:32;;;;;;;25.87;7.40;;;11.50;62.40;;;;;;5023836;28;20484;-79
2021/03/21 11:24:58;;;;;;;24.23;9.47;;;11.50;60.90;;;;;;5026102;28;20034;-75
2021/03/21 11:27:27;;;;;;;27.43;6.23;;;11.70;60.90;;;;;;5007801;28;20080;-74
2021/03/21 11:29:53;;;;;;;23.20;4.30;;;11.80;60.10;;;;;;5027004;28;20033;-74
2021/03/21 11:32:26;;;;;;;24.07;7.23;;;11.80;58.70;;;;;;5027480;28;20395;-79
2021/03/21 11:35:09;;;;;;;;;;;11.90;59.80;;;;;;5026253;28;20773;-75
2021/03/21 11:37:43;;;;;;;26.87;5.53;;;11.90;59.50;;;;;;5006857;28;19952;-75
2021/03/21 11:40:15;;;;;;;26.77;7.43;;;11.80;59.60;;;;;;5025873;28;20099;-74
2021/03/21 11:42:44;;;;;;;21.43;5.77;;;11.70;60.20;;;;;;5008030;28;20025;-73
2021/03/21 11:45:24;;;;;;;26.97;7.90;;;11.70;60.20;;;;;;5009509;28;20383;-73
2021/03/21 11:47:56;;;;;;;28.20;7.27;;;11.70;60.70;;;;;;5004053;28;20025;-73
2021/03/21 11:50:32;;;;;;;24.70;6.35;;;11.70;61.20;;;;;;5008242;28;20040;-79
2021/03/21 11:53:03;;;;;;;30.43;8.37;;;11.50;61.30;;;;;;5010282;28;20417;-75
2021/03/21 11:55:32;;;;;;;31.57;7.70;;;11.50;60.90;;;;;;5025518;28;20056;-73
2021/03/21 11:58:36;;;;;;;34.97;9.93;;;11.30;60.10;;;;;;5027529;28;20025;-73
2021/03/21 12:01:12;;;;;;;31.57;10.03;;;11.40;61.00;;;;;;5010439;28;20060;-73
2021/03/21 12:03:48;;;;;;;28.93;6.00;;;11.50;60.00;;;;;;5026855;28;20462;-73
2021/03/21 12:06:47;;;;;;;34.97;9.57;;;11.50;58.60;;;;;;5026373;28;20036;-73
2021/03/21 12:09:32;;;;;;;27.13;7.73;;;11.50;58.40;;;;;;5013482;28;20045;-74
2021/03/21 12:12:02;;;;;;;25.30;5.57;;;11.60;58.40;;;;;;5026284;28;20032;-73
2021/03/21 12:14:45;;;;;;;24.40;5.93;;;11.70;56.80;;;;;;5022020;28;20025;-77
2021/03/21 12:17:22;;;;;;;;;;;11.70;57.30;;;;;;5024507;28;20482;-74
2021/03/21 12:19:53;;;;;;;28.07;6.67;;;11.90;57.40;;;;;;5003526;28;20086;-76
2021/03/21 12:22:38;;;;;;;22.07;4.83;;;12.00;56.50;;;;;;5002858;28;20038;-75
2021/03/21 12:25:27;;;;;;;21.17;4.77;;;12.10;55.50;;;;;;5019913;28;20183;-77
2021/03/21 12:28:22;;;;;;;25.97;7.23;;;12.00;55.40;;;;;;5004692;28;20037;-76
2021/03/21 12:30:53;;;;;;;28.77;7.63;;;12.00;56.40;;;;;;5020619;28;20087;-76
2021/03/21 12:33:22;;;;;;;24.17;5.87;;;12.10;56.10;;;;;;5022119;28;20049;-76
2021/03/21 12:35:47;;;;;;;29.53;9.20;;;12.00;55.50;;;;;;5001918;28;20030;-75
2021/03/21 12:38:35;;;;;;;24.30;6.53;;;11.80;56.40;;;;;;4987344;28;20042;-75
2021/03/21 12:41:20;;;;;;;30.53;9.17;;;11.80;56.30;;;;;;5004613;28;20033;-75
2021/03/21 12:44:06;;;;;;;29.03;6.30;;;11.80;56.30;;;;;;4994304;28;20512;-76
2021/03/21 12:46:42;;;;;;;31.67;11.60;;;11.80;56.10;;;;;;5019708;28;20025;-78
2021/03/21 12:49:31;;;;;;;24.23;7.07;;;12.00;56.90;;;;;;5022772;28;20136;-73
2021/03/21 12:52:02;;;;;;;22.23;5.13;;;12.10;55.50;;;;;;5004909;28;20674;-76
2021/03/21 12:54:28;;;;;;;21.60;4.80;;;12.10;53.90;;;;;;5019027;28;20052;-77
2021/03/21 12:56:54;;;;;;;22.50;5.93;;;12.00;53.80;;;;;;4984914;28;20727;-74
2021/03/21 12:59:21;;;;;;;26.40;4.97;;;11.90;55.00;;;;;;5003982;28;20041;-75
2021/03/21 13:01:48;;;;;;;27.53;6.23;;;11.90;55.30;;;;;;5002486;28;20033;-78
2021/03/21 13:04:13;;;;;;;22.90;5.50;;;11.80;55.60;;;;;;5005042;28;20057;-73
2021/03/21 13:06:39;;;;;;;21.10;5.20;;;11.70;56.20;;;;;;5019951;28;20029;-76
2021/03/21 13:09:06;;;;;;;28.27;4.50;;;11.70;56.40;;;;;;5003210;28;20560;-77
2021/03/21 13:11:32;;;;;;;26.70;5.03;;;11.50;57.50;;;;;;5023500;28;20293;-78
2021/03/21 13:13:58;;;;;;;23.33;5.13;;;11.30;56.20;;;;;;4989995;28;20129;-76
2021/03/21 13:16:24;;;;;;;23.47;5.77;;;11.40;56.20;;;;;;4990936;28;20029;-74
2021/03/21 13:18:49;;;;;;;24.90;6.23;;;11.30;56.50;;;;;;5023113;28;20042;-76
2021/03/21 13:21:15;;;;;;;26.43;5.00;;;11.40;56.20;;;;;;5005077;28;20037;-73
2021/03/21 13:23:41;;;;;;;23.60;5.90;;;11.60;55.20;;;;;;5003329;28;20127;-75
2021/03/21 13:26:06;;;;;;;29.07;6.83;;;11.70;55.40;;;;;;5022334;28;20049;-76
2021/03/21 13:28:32;;;;;;;22.37;6.13;;;11.80;55.40;;;;;;4998139;28;20048;-76
2021/03/21 13:30:59;;;;;;;24.37;5.73;;;11.80;54.80;;;;;;5006066;28;20507;-75
2021/03/21 13:33:28;;;;;;;24.43;6.03;;;11.80;54.80;;;;;;5021465;28;20120;-75